Time;durP1;ratioP1;P1;durP2;ratioP2;P2;SDS_P1;SDS_P2;PMS_P1;PMS_P2;Temp;Humidity;BMP_temperature;BMP_pressure;BME280_temperature;BME280_humidity;BME280_pressure;Samples;Min_cycle;Max_cycle;Signal;HPM_P1;HPM_P2
2023/07/18 00:01:46;;;;;;;9.77;2.65;;;13.70;99.90;;;;;;5119720;27;20047;-70
2023/07/18 00:04:12;;;;;;;12.18;2.72;;;13.60;99.90;;;;;;5136921;27;20039;-70
2023/07/18 00:06:41;;;;;;;6.97;2.25;;;13.60;99.90;;;;;;5152715;27;20035;-70
2023/07/18 00:09:07;;;;;;;14.02;3.00;;;13.50;99.90;;;;;;5101673;27;20476;-69
2023/07/18 00:11:33;;;;;;;9.68;2.85;;;13.50;99.90;;;;;;5118310;27;20074;-70
2023/07/18 00:13:59;;;;;;;10.85;2.22;;;13.50;99.90;;;;;;5119204;27;20130;-70
2023/07/18 00:16:25;;;;;;;10.05;2.80;;;13.50;99.90;;;;;;5118479;27;20496;-70
2023/07/18 00:18:52;;;;;;;6.53;2.15;;;13.50;99.90;;;;;;5137208;27;20075;-69
2023/07/18 00:21:17;;;;;;;10.40;2.38;;;13.50;99.90;;;;;;5119028;27;20344;-71
2023/07/18 00:23:43;;;;;;;8.52;2.65;;;13.50;99.90;;;;;;5138195;27;20058;-69
2023/07/18 00:26:09;;;;;;;8.05;2.20;;;13.50;99.90;;;;;;5123246;27;20394;-69
2023/07/18 00:28:35;;;;;;;6.85;2.40;;;13.50;99.90;;;;;;5118880;27;20058;-70
2023/07/18 00:31:05;;;;;;;9.25;2.40;;;13.50;99.90;;;;;;5118192;27;20505;-71
2023/07/18 00:33:31;;;;;;;8.85;2.50;;;13.40;99.90;;;;;;5136176;27;20039;-70
2023/07/18 00:35:56;;;;;;;9.73;2.58;;;13.50;99.90;;;;;;5136183;27;20047;-70
2023/07/18 00:38:22;;;;;;;8.05;2.83;;;13.40;99.90;;;;;;5136045;27;20047;-70
2023/07/18 00:40:49;;;;;;;6.47;2.58;;;13.50;99.90;;;;;;5135852;27;20099;-71
2023/07/18 00:43:15;;;;;;;12.45;2.78;;;13.50;99.90;;;;;;5136775;27;20043;-70
2023/07/18 00:45:43;;;;;;;7.63;2.55;;;13.40;99.90;;;;;;5135953;27;20039;-70
2023/07/18 00:48:09;;;;;;;9.82;2.70;;;13.40;99.90;;;;;;5135567;27;20061;-71
2023/07/18 00:50:36;;;;;;;11.90;2.67;;;13.40;99.90;;;;;;5135211;27;20043;-70
2023/07/18 00:53:02;;;;;;;7.10;2.80;;;13.40;99.90;;;;;;5136343;27;20047;-70
2023/07/18 00:55:28;;;;;;;7.38;2.60;;;13.30;99.90;;;;;;5117624;27;20051;-70
2023/07/18 00:57:55;;;;;;;7.63;2.67;;;13.30;99.90;;;;;;5117493;27;20045;-70
2023/07/18 01:00:22;;;;;;;12.23;2.83;;;13.30;99.90;;;;;;5135344;27;20039;-69
2023/07/18 01:02:49;;;;;;;6.97;2.42;;;13.30;99.90;;;;;;5135336;27;20051;-69
2023/07/18 01:05:19;;;;;;;;;;;13.20;99.90;;;;;;5135846;27;20099;-69
2023/07/18 01:07:46;;;;;;;10.00;2.63;;;13.20;99.90;;;;;;5135433;27;19967;-69
2023/07/18 01:10:30;;;;;;;7.82;2.78;;;13.20;99.90;;;;;;5151261;27;20051;-69
2023/07/18 01:12:58;;;;;;;8.32;2.42;;;13.20;99.90;;;;;;5135232;27;20043;-70
2023/07/18 01:15:26;;;;;;;9.43;3.10;;;13.20;99.90;;;;;;5117177;27;20051;-68
2023/07/18 01:17:52;;;;;;;8.02;2.53;;;13.20;99.90;;;;;;5135222;27;20051;-71
2023/07/18 01:20:19;;;;;;;7.77;2.90;;;13.20;99.90;;;;;;5135070;27;20092;-68
2023/07/18 01:22:48;;;;;;;8.55;2.75;;;13.20;99.90;;;;;;5116732;27;20062;-68
2023/07/18 01:25:16;;;;;;;8.95;2.80;;;13.10;99.90;;;;;;5135071;27;20495;-69
2023/07/18 01:27:52;;;;;;;9.30;2.85;;;13.20;99.90;;;;;;5134670;27;20498;-68
2023/07/18 01:30:19;;;;;;;9.50;2.85;;;13.20;99.90;;;;;;5135038;27;20039;-69
2023/07/18 01:32:48;;;;;;;10.45;2.88;;;13.20;99.90;;;;;;5135695;27;20107;-69
2023/07/18 01:35:17;;;;;;;8.65;2.70;;;13.20;99.90;;;;;;5134880;27;20047;-69
2023/07/18 01:37:46;;;;;;;7.63;3.10;;;13.10;99.90;;;;;;5116918;27;20050;-70
2023/07/18 01:40:15;;;;;;;9.70;2.42;;;13.10;99.90;;;;;;5116345;27;20118;-71
2023/07/18 01:42:42;;;;;;;10.88;3.05;;;13.20;99.90;;;;;;5116452;27;20134;-69
2023/07/18 01:45:09;;;;;;;10.98;2.95;;;13.20;99.90;;;;;;5134684;27;20039;-70
2023/07/18 01:47:37;;;;;;;9.10;3.05;;;13.20;99.90;;;;;;5096157;28;20135;-69
2023/07/18 01:50:04;;;;;;;11.52;2.97;;;13.20;99.90;;;;;;5113131;28;20083;-70
2023/07/18 01:52:31;;;;;;;9.02;2.70;;;13.20;99.90;;;;;;5113186;28;20047;-70
2023/07/18 01:54:58;;;;;;;8.60;2.50;;;13.10;99.90;;;;;;5114041;28;20101;-70
2023/07/18 01:57:31;;;;;;;9.13;3.30;;;13.10;99.90;;;;;;5112849;28;20040;-69
2023/07/18 02:00:00;;;;;;;10.18;2.80;;;13.10;99.90;;;;;;5112714;28;20054;-69
2023/07/18 02:02:29;;;;;;;11.00;2.72;;;13.10;99.90;;;;;;5114494;28;20058;-70
2023/07/18 02:04:58;;;;;;;8.48;3.00;;;13.10;99.90;;;;;;5113851;28;20051;-70
2023/07/18 02:07:25;;;;;;;8.98;2.95;;;13.10;99.90;;;;;;5112773;28;20039;-70
2023/07/18 02:09:51;;;;;;;10.65;3.30;;;13.00;99.90;;;;;;5114179;28;20491;-70
2023/07/18 02:12:17;;;;;;;11.73;3.50;;;13.00;99.90;;;;;;5096697;28;20048;-70
2023/07/18 02:14:43;;;;;;;10.13;3.30;;;13.00;99.90;;;;;;5114428;28;20050;-69
2023/07/18 02:17:09;;;;;;;11.02;2.80;;;13.00;99.90;;;;;;5114307;28;20281;-70
2023/07/18 02:19:35;;;;;;;12.65;3.20;;;12.90;99.90;;;;;;5112649;28;20043;-69
2023/07/18 02:22:02;;;;;;;8.02;2.92;;;12.90;99.90;;;;;;5113750;28;20051;-70
2023/07/18 02:24:28;;;;;;;14.70;3.15;;;12.90;99.90;;;;;;5112595;28;20134;-69
2023/07/18 02:26:56;;;;;;;11.20;3.30;;;12.80;99.90;;;;;;5112763;28;20079;-70
2023/07/18 02:29:22;;;;;;;8.65;3.00;;;12.90;99.90;;;;;;5113770;28;20036;-69
2023/07/18 02:31:50;;;;;;;9.13;2.85;;;12.90;99.90;;;;;;5112443;28;20040;-69
2023/07/18 02:34:16;;;;;;;15.10;3.00;;;12.80;99.90;;;;;;5113416;28;20047;-70
2023/07/18 02:36:42;;;;;;;9.00;2.60;;;12.80;99.90;;;;;;5113682;28;20048;-69
2023/07/18 02:39:10;;;;;;;12.50;3.38;;;12.80;99.90;;;;;;5112502;28;20040;-69
2023/07/18 02:41:39;;;;;;;11.65;3.38;;;12.80;99.90;;;;;;5114107;28;20051;-69
2023/07/18 02:44:05;;;;;;;13.32;3.55;;;12.80;99.90;;;;;;5113516;28;20123;-69
2023/07/18 02:46:31;;;;;;;8.88;3.10;;;12.70;99.90;;;;;;5113832;28;20048;-69
2023/07/18 02:48:57;;;;;;;10.52;3.13;;;12.80;99.90;;;;;;5133143;28;20554;-69
2023/07/18 02:51:23;;;;;;;9.23;3.13;;;12.70;99.90;;;;;;5134012;28;20051;-69
2023/07/18 02:53:51;;;;;;;9.07;3.38;;;12.70;99.90;;;;;;5133960;28;20054;-69
2023/07/18 02:56:18;;;;;;;9.60;2.92;;;12.70;99.90;;;;;;5134410;28;20043;-69
2023/07/18 02:58:44;;;;;;;10.23;2.75;;;12.70;99.90;;;;;;5133953;28;20097;-69
2023/07/18 03:01:11;;;;;;;8.70;2.78;;;12.60;99.90;;;;;;5133896;28;20492;-69
2023/07/18 03:03:41;;;;;;;11.50;2.95;;;12.60;99.90;;;;;;5134764;28;20121;-68
2023/07/18 03:06:09;;;;;;;9.60;2.80;;;12.60;99.90;;;;;;5133816;28;20206;-69
2023/07/18 03:08:36;;;;;;;8.77;2.83;;;12.60;99.90;;;;;;5116032;28;20153;-69
2023/07/18 03:11:05;;;;;;;9.63;3.20;;;12.60;99.90;;;;;;5098802;28;20133;-72
2023/07/18 03:13:31;;;;;;;9.13;3.10;;;12.60;99.90;;;;;;5151950;27;20107;-69
2023/07/18 03:15:57;;;;;;;10.70;3.20;;;12.60;99.90;;;;;;5138401;27;20074;-69
2023/07/18 03:18:22;;;;;;;9.45;2.70;;;12.60;99.90;;;;;;5138065;27;20098;-70
2023/07/18 03:20:49;;;;;;;13.00;3.10;;;12.50;99.90;;;;;;5119175;27;20046;-69
2023/07/18 03:23:15;;;;;;;7.80;2.30;;;12.50;99.90;;;;;;5119193;27;20047;-69
2023/07/18 03:25:41;;;;;;;14.38;3.67;;;12.60;99.90;;;;;;5137384;27;20104;-69
2023/07/18 03:28:08;;;;;;;10.77;3.60;;;12.60;99.90;;;;;;5119220;27;20047;-70
2023/07/18 03:30:34;;;;;;;11.32;2.83;;;12.60;99.90;;;;;;5119809;27;20100;-69
2023/07/18 03:32:59;;;;;;;13.82;3.25;;;12.60;99.90;;;;;;5137364;27;20047;-69
2023/07/18 03:35:25;;;;;;;10.75;3.00;;;12.60;99.90;;;;;;5153337;27;20047;-69
2023/07/18 03:37:51;;;;;;;7.80;2.70;;;12.60;99.90;;;;;;5137397;27;20047;-70
2023/07/18 03:40:17;;;;;;;11.73;2.83;;;12.60;99.90;;;;;;5137839;27;20042;-70
2023/07/18 03:42:44;;;;;;;10.25;2.53;;;12.60;99.90;;;;;;5137294;27;20085;-69
2023/07/18 03:45:12;;;;;;;11.13;2.97;;;12.60;99.90;;;;;;5137285;27;20147;-70
2023/07/18 03:47:39;;;;;;;7.45;2.47;;;12.70;99.90;;;;;;5084884;27;20059;-70
2023/07/18 03:50:05;;;;;;;9.15;2.70;;;12.70;99.90;;;;;;5137067;27;20055;-69
2023/07/18 03:52:31;;;;;;;10.27;2.70;;;12.70;99.90;;;;;;5153136;27;20047;-70
2023/07/18 03:54:57;;;;;;;13.82;3.28;;;12.70;99.90;;;;;;5152856;27;20042;-70
2023/07/18 03:57:22;;;;;;;8.20;2.78;;;12.70;99.90;;;;;;5118662;27;20051;-69
2023/07/18 03:59:48;;;;;;;12.27;2.80;;;12.70;99.90;;;;;;5136385;27;20035;-69
2023/07/18 04:02:14;;;;;;;9.98;2.42;;;12.70;99.90;;;;;;5137232;27;20110;-69
2023/07/18 04:04:41;;;;;;;11.10;2.58;;;12.70;99.90;;;;;;5101378;27;20043;-69
2023/07/18 04:07:07;;;;;;;10.27;2.85;;;12.70;99.90;;;;;;5118514;27;20445;-70
2023/07/18 04:09:34;;;;;;;9.13;2.40;;;12.70;99.90;;;;;;5118276;27;20043;-68
2023/07/18 04:12:00;;;;;;;11.57;2.70;;;12.80;99.90;;;;;;5152453;27;20079;-69
2023/07/18 04:14:26;;;;;;;12.52;2.78;;;12.80;99.90;;;;;;5136353;27;20047;-68
2023/07/18 04:16:52;;;;;;;10.95;3.00;;;12.80;99.90;;;;;;5118876;27;20387;-68
2023/07/18 04:19:19;;;;;;;11.18;2.55;;;12.80;99.90;;;;;;5136202;27;20031;-70
2023/07/18 04:21:45;;;;;;;14.50;2.90;;;12.80;99.90;;;;;;5136259;27;20543;-69
2023/07/18 04:24:11;;;;;;;9.10;2.67;;;12.80;99.90;;;;;;5117036;28;20047;-69
2023/07/18 04:26:36;;;;;;;10.35;2.72;;;12.90;99.90;;;;;;5135953;27;20403;-69
2023/07/18 04:29:05;;;;;;;9.43;2.58;;;13.00;99.90;;;;;;5117965;27;20042;-69
2023/07/18 04:31:31;;;;;;;9.52;2.03;;;13.10;99.90;;;;;;5134736;27;20054;-70
2023/07/18 04:33:57;;;;;;;11.73;2.55;;;13.10;99.90;;;;;;5136594;27;20043;-70
2023/07/18 04:36:24;;;;;;;8.93;2.67;;;13.20;99.90;;;;;;5117757;27;20105;-70
2023/07/18 04:38:49;;;;;;;6.70;2.05;;;13.30;99.90;;;;;;5117556;27;20558;-70
2023/07/18 04:41:15;;;;;;;11.20;2.55;;;13.40;99.90;;;;;;5135877;27;20131;-72
2023/07/18 04:43:41;;;;;;;9.13;2.60;;;13.40;99.90;;;;;;5135886;27;20047;-70
2023/07/18 04:46:08;;;;;;;14.30;2.40;;;13.50;99.90;;;;;;5100656;27;20061;-70
2023/07/18 04:48:34;;;;;;;8.50;2.42;;;13.50;99.90;;;;;;5116888;27;20082;-70
2023/07/18 04:51:01;;;;;;;8.13;2.42;;;13.50;99.90;;;;;;5135481;27;20483;-70
2023/07/18 04:53:28;;;;;;;7.35;2.03;;;13.50;99.90;;;;;;5135538;27;20125;-70
2023/07/18 04:55:58;;;;;;;9.57;2.50;;;13.60;99.90;;;;;;5117825;27;20043;-70
2023/07/18 04:58:25;;;;;;;11.43;2.50;;;13.60;99.90;;;;;;5135107;27;20554;-69
2023/07/18 05:00:54;;;;;;;9.20;2.28;;;13.60;99.90;;;;;;5135379;27;20043;-71
2023/07/18 05:03:21;;;;;;;12.32;2.08;;;13.70;99.90;;;;;;5135369;27;20433;-70
2023/07/18 05:05:46;;;;;;;9.73;2.15;;;13.80;99.90;;;;;;5116915;27;20047;-71
2023/07/18 05:08:12;;;;;;;11.70;2.30;;;13.90;99.90;;;;;;5135311;27;20087;-70
2023/07/18 05:10:39;;;;;;;8.82;2.03;;;13.90;99.90;;;;;;5116673;27;20046;-70
2023/07/18 05:13:05;;;;;;;8.80;2.05;;;14.00;99.90;;;;;;5135590;27;20069;-69
2023/07/18 05:15:30;;;;;;;10.27;2.17;;;14.00;99.90;;;;;;5117738;27;20459;-69
2023/07/18 05:17:56;;;;;;;9.02;2.05;;;14.10;99.90;;;;;;5116956;27;20402;-70
2023/07/18 05:20:22;;;;;;;11.68;2.55;;;14.20;99.90;;;;;;5099431;27;20154;-71
2023/07/18 05:22:47;;;;;;;8.93;2.45;;;14.20;99.90;;;;;;5135936;27;20046;-70
2023/07/18 05:25:14;;;;;;;9.30;2.33;;;14.30;99.90;;;;;;5134813;27;20082;-68
2023/07/18 05:27:41;;;;;;;;;;;14.40;99.90;;;;;;5117586;27;20054;-69
2023/07/18 05:30:15;;;;;;;6.38;2.05;;;14.40;99.90;;;;;;5135233;27;19988;-69
2023/07/18 05:32:42;;;;;;;9.35;2.05;;;14.50;99.90;;;;;;5100365;27;20484;-69
2023/07/18 05:35:10;;;;;;;10.90;2.03;;;14.50;99.90;;;;;;5134403;27;20051;-70
2023/07/18 05:37:36;;;;;;;7.90;2.22;;;14.50;99.90;;;;;;5116226;27;20089;-70
2023/07/18 05:40:03;;;;;;;8.43;2.00;;;14.50;99.90;;;;;;5133644;27;20043;-69
2023/07/18 05:42:29;;;;;;;8.05;1.83;;;14.50;99.90;;;;;;5099429;27;20493;-70
2023/07/18 05:44:55;;;;;;;13.65;3.00;;;14.60;99.90;;;;;;5116649;27;20055;-69
2023/07/18 05:47:20;;;;;;;7.15;2.00;;;14.60;99.90;;;;;;5150222;27;20062;-70
2023/07/18 05:49:46;;;;;;;10.52;2.42;;;14.80;99.90;;;;;;5116534;27;20051;-69
2023/07/18 05:52:12;;;;;;;13.30;1.98;;;14.90;99.90;;;;;;5134657;27;20057;-70
2023/07/18 05:54:38;;;;;;;9.18;2.17;;;15.10;99.90;;;;;;5134456;27;20126;-69
2023/07/18 05:57:04;;;;;;;8.80;2.47;;;15.40;99.90;;;;;;5134502;27;20509;-68
2023/07/18 05:59:30;;;;;;;9.45;2.20;;;15.60;99.90;;;;;;5116048;28;20440;-70
2023/07/18 06:01:56;;;;;;;11.82;2.30;;;15.70;99.90;;;;;;5099520;28;20495;-70
2023/07/18 06:04:22;;;;;;;8.68;2.25;;;15.80;99.90;;;;;;5134429;27;20173;-69
2023/07/18 06:06:47;;;;;;;7.32;1.70;;;15.80;99.90;;;;;;5134305;27;20395;-70
2023/07/18 06:09:13;;;;;;;8.43;1.98;;;16.00;99.90;;;;;;5116911;27;20118;-70
2023/07/18 06:11:39;;;;;;;8.97;2.23;;;16.00;99.90;;;;;;5115835;28;20047;-69
2023/07/18 06:14:05;;;;;;;7.80;2.08;;;16.00;99.90;;;;;;5134820;28;20043;-69
2023/07/18 06:16:32;;;;;;;9.65;2.13;;;16.00;99.90;;;;;;5116388;28;20460;-71
2023/07/18 06:18:57;;;;;;;9.93;2.25;;;16.00;99.90;;;;;;5134088;28;20055;-70
2023/07/18 06:21:26;;;;;;;9.13;2.20;;;16.10;99.90;;;;;;5135031;28;20043;-69
2023/07/18 06:23:55;;;;;;;7.10;1.80;;;16.10;99.90;;;;;;5134156;28;20074;-69
2023/07/18 06:26:22;;;;;;;8.38;1.95;;;16.20;99.90;;;;;;5151208;27;20047;-68
2023/07/18 06:28:48;;;;;;;11.82;2.10;;;16.30;99.90;;;;;;5133873;28;20122;-68
2023/07/18 06:31:14;;;;;;;8.93;1.83;;;16.30;99.90;;;;;;5116662;28;20126;-70
2023/07/18 06:33:43;;;;;;;7.82;1.63;;;16.40;99.90;;;;;;5115964;28;20100;-70
2023/07/18 06:36:09;;;;;;;6.07;1.60;;;16.50;99.90;;;;;;5150700;27;20090;-68
2023/07/18 06:38:35;;;;;;;9.97;1.60;;;16.60;99.90;;;;;;5134000;28;20095;-70
2023/07/18 06:41:00;;;;;;;7.32;1.85;;;16.70;99.90;;;;;;5115570;28;20043;-69
2023/07/18 06:43:27;;;;;;;13.45;2.20;;;16.80;99.90;;;;;;5115729;28;20054;-70
2023/07/18 06:45:53;;;;;;;9.57;1.90;;;16.90;99.90;;;;;;5134559;28;20039;-69
2023/07/18 06:48:19;;;;;;;5.97;1.90;;;17.00;99.90;;;;;;5135853;27;20103;-69
2023/07/18 06:50:46;;;;;;;9.83;1.87;;;17.20;99.90;;;;;;5119739;27;20051;-68
2023/07/18 06:53:13;;;;;;;9.80;1.60;;;17.40;99.90;;;;;;5119747;27;20043;-69
2023/07/18 06:55:41;;;;;;;10.85;1.83;;;17.60;99.90;;;;;;5137916;27;20047;-69
2023/07/18 06:58:09;;;;;;;8.80;1.90;;;17.80;99.90;;;;;;5102829;27;20112;-69
2023/07/18 07:00:36;;;;;;;7.55;1.65;;;17.80;99.90;;;;;;5102692;27;20047;-71
2023/07/18 07:03:01;;;;;;;;;;;17.90;99.90;;;;;;5138270;27;20111;-69
2023/07/18 07:05:27;;;;;;;9.07;2.07;;;17.70;99.90;;;;;;5136788;27;20304;-69
2023/07/18 07:07:53;;;;;;;8.60;1.50;;;17.70;99.90;;;;;;5119731;27;20062;-70
2023/07/18 07:10:19;;;;;;;5.63;1.65;;;17.70;99.90;;;;;;5120237;27;20382;-69
2023/07/18 07:12:45;;;;;;;10.50;2.00;;;17.80;99.90;;;;;;5119528;27;20055;-69
2023/07/18 07:15:11;;;;;;;10.03;1.97;;;18.00;99.90;;;;;;5119436;27;20129;-69
2023/07/18 07:17:38;;;;;;;8.98;1.88;;;18.00;99.90;;;;;;5137541;27;20055;-70
2023/07/18 07:20:06;;;;;;;13.32;1.75;;;18.10;99.90;;;;;;5137457;27;20043;-69
2023/07/18 07:22:32;;;;;;;10.40;1.60;;;18.20;99.90;;;;;;5154065;27;20070;-69
2023/07/18 07:24:58;;;;;;;9.60;1.80;;;18.40;99.90;;;;;;5119020;27;20102;-69
2023/07/18 07:27:24;;;;;;;10.67;2.20;;;18.50;99.90;;;;;;5119545;27;20035;-69
2023/07/18 07:29:49;;;;;;;7.97;2.00;;;18.50;99.90;;;;;;5119565;27;20397;-69
2023/07/18 07:32:15;;;;;;;6.33;1.60;;;18.60;99.90;;;;;;5137358;27;20411;-70
2023/07/18 07:34:42;;;;;;;8.40;1.67;;;18.70;99.90;;;;;;5138066;27;20051;-70
2023/07/18 07:37:08;;;;;;;;;;;19.00;99.90;;;;;;5119233;27;20126;-68
2023/07/18 07:39:34;;;;;;;8.43;2.15;;;19.10;99.90;;;;;;5118738;27;19920;-69
2023/07/18 07:42:01;;;;;;;12.32;1.95;;;19.10;99.90;;;;;;5118532;27;20043;-70
2023/07/18 07:44:27;;;;;;;9.47;2.00;;;19.20;99.90;;;;;;5119222;27;20050;-69
2023/07/18 07:46:54;;;;;;;11.82;2.65;;;19.10;99.90;;;;;;5118682;27;20059;-70
2023/07/18 07:49:20;;;;;;;10.13;2.08;;;19.00;99.90;;;;;;5119505;27;20047;-70
2023/07/18 07:51:46;;;;;;;15.30;2.47;;;19.10;99.90;;;;;;5137371;27;20043;-71
2023/07/18 07:54:12;;;;;;;7.60;1.73;;;19.10;99.90;;;;;;5118890;27;20387;-70
2023/07/18 07:56:37;;;;;;;8.50;2.13;;;19.20;99.90;;;;;;5118651;27;20394;-69
2023/07/18 07:59:03;;;;;;;8.90;2.33;;;19.20;99.90;;;;;;5136744;27;20051;-69
2023/07/18 08:01:29;;;;;;;15.33;2.33;;;19.30;99.90;;;;;;5152825;27;20039;-69
2023/07/18 08:03:55;;;;;;;11.93;2.13;;;19.30;99.90;;;;;;5101313;27;20399;-69
2023/07/18 08:06:21;;;;;;;15.53;2.20;;;19.40;99.90;;;;;;5118763;27;20043;-69
2023/07/18 08:08:47;;;;;;;13.18;2.10;;;19.60;99.90;;;;;;5118625;27;20372;-70
2023/07/18 08:11:12;;;;;;;12.63;2.53;;;19.60;99.90;;;;;;5136488;27;20096;-70
2023/07/18 08:13:38;;;;;;;12.73;2.10;;;19.50;99.90;;;;;;5118207;27;20051;-70
2023/07/18 08:16:05;;;;;;;12.07;2.17;;;19.50;99.90;;;;;;5101570;27;20107;-70
2023/07/18 08:18:30;;;;;;;;;;;19.60;99.90;;;;;;5119599;27;20089;-69
2023/07/18 08:20:56;;;;;;;12.00;1.53;;;19.80;99.90;;;;;;5136224;27;19962;-70
2023/07/18 08:23:22;;;;;;;16.90;2.13;;;19.90;99.90;;;;;;5136328;27;20047;-69
2023/07/18 08:25:49;;;;;;;14.80;1.90;;;20.00;99.90;;;;;;5101462;27;20051;-69
2023/07/18 08:28:15;;;;;;;7.18;1.23;;;20.10;99.90;;;;;;5102104;27;20082;-68
2023/07/18 08:30:40;;;;;;;10.30;1.60;;;20.20;99.90;;;;;;5117977;27;20070;-69
2023/07/18 08:33:09;;;;;;;14.73;1.53;;;20.20;99.90;;;;;;5101001;27;20047;-69
2023/07/18 08:35:37;;;;;;;9.35;1.35;;;20.40;99.90;;;;;;5136463;27;20043;-69
2023/07/18 08:38:04;;;;;;;8.20;1.48;;;20.40;99.90;;;;;;5136041;27;20039;-70
2023/07/18 08:40:30;;;;;;;10.00;1.27;;;20.50;99.90;;;;;;5117621;27;20409;-69
2023/07/18 08:42:56;;;;;;;8.20;1.00;;;20.60;99.90;;;;;;5117787;27;20051;-70
2023/07/18 08:45:24;;;;;;;7.73;0.90;;;20.60;99.90;;;;;;5135684;27;20050;-70
2023/07/18 08:47:56;;;;;;;10.07;1.20;;;20.60;99.90;;;;;;5117225;27;20392;-71
2023/07/18 08:50:23;;;;;;;10.80;1.17;;;20.60;99.90;;;;;;5136055;27;20490;-70
2023/07/18 08:52:49;;;;;;;7.95;1.25;;;20.70;99.90;;;;;;5117674;27;20058;-68
2023/07/18 08:55:15;;;;;;;7.90;0.98;;;20.80;99.90;;;;;;5101305;27;20043;-69
2023/07/18 08:57:41;;;;;;;9.23;0.97;;;20.80;99.90;;;;;;5136455;27;20501;-68
2023/07/18 09:00:07;;;;;;;7.35;0.90;;;20.80;99.90;;;;;;5135484;27;20099;-68
2023/07/18 09:02:33;;;;;;;6.07;0.73;;;20.90;99.90;;;;;;5136421;27;20040;-68
2023/07/18 09:04:59;;;;;;;9.30;0.70;;;20.90;99.90;;;;;;5118023;27;20490;-69
2023/07/18 09:07:27;;;;;;;5.20;0.50;;;20.90;99.90;;;;;;5135490;27;20549;-69
2023/07/18 09:09:55;;;;;;;4.63;0.40;;;21.10;99.90;;;;;;5100265;27;20047;-73
2023/07/18 09:12:20;;;;;;;3.22;0.43;;;21.20;99.90;;;;;;5134924;27;20051;-68
2023/07/18 09:14:46;;;;;;;4.27;0.50;;;21.20;99.90;;;;;;5116975;27;20489;-68
2023/07/18 09:17:12;;;;;;;4.77;0.50;;;21.30;99.90;;;;;;5151275;27;20095;-69
2023/07/18 09:19:46;;;;;;;5.80;0.57;;;21.40;99.90;;;;;;5135465;27;20129;-69
2023/07/18 09:22:13;;;;;;;4.05;0.50;;;21.40;99.90;;;;;;5135177;27;20046;-68
2023/07/18 09:24:40;;;;;;;4.45;0.50;;;21.50;99.90;;;;;;5135064;27;20087;-69
2023/07/18 09:27:18;;;;;;;4.55;0.40;;;21.50;99.90;;;;;;5135149;27;20090;-68
2023/07/18 09:29:45;;;;;;;2.80;0.40;;;21.60;99.90;;;;;;5135321;27;20122;-69
2023/07/18 09:32:17;;;;;;;;;;;21.70;99.90;;;;;;5135519;27;20043;-68
2023/07/18 09:34:54;;;;;;;2.30;0.32;;;21.80;99.90;;;;;;5135211;27;19919;-68
2023/07/18 09:37:20;;;;;;;2.65;0.30;;;21.80;99.90;;;;;;5117473;27;20055;-68
2023/07/18 09:39:47;;;;;;;2.80;0.35;;;21.80;99.90;;;;;;5134909;27;20039;-69
2023/07/18 09:42:15;;;;;;;;;;;21.90;99.90;;;;;;5135031;27;20054;-68
2023/07/18 09:44:42;;;;;;;6.82;0.30;;;22.10;99.90;;;;;;5134948;27;19920;-69
2023/07/18 09:47:08;;;;;;;3.40;0.30;;;22.30;99.90;;;;;;5099460;27;20519;-69
2023/07/18 09:49:35;;;;;;;3.75;0.30;;;22.40;99.90;;;;;;5136204;27;20100;-67
2023/07/18 09:52:05;;;;;;;2.30;0.30;;;22.60;99.90;;;;;;5151108;27;20082;-68
2023/07/18 09:54:32;;;;;;;4.07;0.30;;;22.60;99.90;;;;;;5150582;27;20047;-66
2023/07/18 09:57:05;;;;;;;4.82;0.40;;;22.70;99.90;;;;;;5134560;27;20099;-68
2023/07/18 09:59:31;;;;;;;3.45;0.40;;;22.80;99.90;;;;;;5135306;27;20070;-70
2023/07/18 10:01:57;;;;;;;;;;;22.80;99.90;;;;;;5116673;27;20054;-69
2023/07/18 10:04:24;;;;;;;3.42;0.30;;;23.00;99.90;;;;;;5116234;27;19919;-69
2023/07/18 10:06:51;;;;;;;4.47;0.38;;;23.20;99.90;;;;;;5135232;27;20047;-69
2023/07/18 10:09:18;;;;;;;1.90;0.30;;;23.40;99.90;;;;;;5082603;27;20047;-69
2023/07/18 10:11:59;;;;;;;2.30;0.28;;;23.30;99.90;;;;;;5134350;27;20083;-68
2023/07/18 10:14:48;;;;;;;2.15;0.20;;;23.50;99.90;;;;;;5115976;27;20098;-69
2023/07/18 10:17:33;;;;;;;2.17;0.40;;;23.60;99.90;;;;;;5134230;28;20059;-69
2023/07/18 10:20:27;;;;;;;4.22;0.30;;;23.60;99.90;;;;;;5134480;28;20078;-69
2023/07/18 10:22:58;;;;;;;3.67;0.43;;;23.70;99.90;;;;;;5147613;27;20055;-69
2023/07/18 10:25:29;;;;;;;2.17;0.30;;;23.70;99.90;;;;;;5120396;27;20054;-70
2023/07/18 10:27:56;;;;;;;3.65;0.40;;;23.60;99.90;;;;;;5121184;27;20126;-69
2023/07/18 10:30:22;;;;;;;3.38;0.40;;;23.50;99.90;;;;;;5120231;27;20048;-68
2023/07/18 10:32:56;;;;;;;3.05;0.30;;;23.50;99.90;;;;;;5154840;27;20055;-70
2023/07/18 10:35:27;;;;;;;3.95;0.40;;;23.50;99.90;;;;;;5138370;27;20100;-69
2023/07/18 10:38:03;;;;;;;2.67;0.28;;;23.50;99.90;;;;;;5138440;27;20082;-68
2023/07/18 10:40:43;;;;;;;4.55;0.40;;;23.40;99.90;;;;;;5103184;27;20069;-68
2023/07/18 10:43:18;;;;;;;2.30;0.40;;;23.40;99.70;;;;;;5120375;27;20039;-69
2023/07/18 10:45:45;;;;;;;4.50;0.50;;;23.40;99.90;;;;;;5138811;27;20391;-68
2023/07/18 10:48:19;;;;;;;3.35;0.30;;;23.40;99.90;;;;;;5116071;28;20055;-70
2023/07/18 10:50:46;;;;;;;3.92;0.40;;;23.20;98.40;;;;;;5099611;28;20087;-68
2023/07/18 10:53:19;;;;;;;2.30;0.40;;;23.10;99.50;;;;;;5117461;28;20047;-69
2023/07/18 10:55:48;;;;;;;6.18;0.60;;;23.10;98.20;;;;;;5116492;28;20052;-69
2023/07/18 10:58:16;;;;;;;2.70;0.30;;;23.10;99.00;;;;;;5117976;28;20047;-69
2023/07/18 11:00:42;;;;;;;2.50;0.28;;;23.20;99.50;;;;;;5117586;28;20467;-67
2023/07/18 11:03:34;;;;;;;3.38;0.30;;;23.20;98.70;;;;;;5100199;28;20050;-71
2023/07/18 11:06:05;;;;;;;1.65;0.30;;;23.30;97.00;;;;;;5115903;28;20502;-67
2023/07/18 11:08:31;;;;;;;2.40;0.38;;;23.20;98.40;;;;;;5099870;28;20131;-68
2023/07/18 11:11:03;;;;;;;2.33;0.38;;;23.30;98.20;;;;;;5117305;28;20108;-68
2023/07/18 11:13:37;;;;;;;3.83;0.40;;;23.40;98.40;;;;;;5116499;28;20069;-69
2023/07/18 11:16:11;;;;;;;3.60;0.50;;;23.50;99.30;;;;;;5118002;28;20101;-67
2023/07/18 11:18:40;;;;;;;5.35;0.40;;;23.50;97.10;;;;;;5115877;28;20050;-68
2023/07/18 11:21:07;;;;;;;3.83;0.50;;;23.50;97.80;;;;;;5115728;28;20127;-67
2023/07/18 11:23:34;;;;;;;4.30;0.40;;;23.70;98.10;;;;;;5098873;28;20146;-68
2023/07/18 11:26:12;;;;;;;5.93;0.40;;;23.70;98.50;;;;;;5116892;28;20111;-68
2023/07/18 11:28:39;;;;;;;3.35;0.30;;;23.80;98.70;;;;;;5116315;28;20341;-67
2023/07/18 11:31:06;;;;;;;3.05;0.30;;;23.90;97.90;;;;;;5116825;28;20052;-68
2023/07/18 11:33:32;;;;;;;;;;;24.00;98.10;;;;;;5117464;28;20205;-68
2023/07/18 11:35:58;;;;;;;3.63;0.50;;;24.00;96.80;;;;;;5117096;28;19988;-69
2023/07/18 11:38:28;;;;;;;4.25;0.60;;;24.00;98.10;;;;;;5116650;28;20126;-68
2023/07/18 11:40:54;;;;;;;2.47;0.32;;;24.10;97.20;;;;;;5115701;28;20043;-70
2023/07/18 11:43:20;;;;;;;5.17;0.50;;;24.10;97.10;;;;;;5116784;28;20123;-68
2023/07/18 11:45:46;;;;;;;2.00;0.30;;;24.20;97.60;;;;;;5116857;28;20051;-67
2023/07/18 11:48:15;;;;;;;4.38;0.40;;;24.20;97.70;;;;;;5115128;28;20051;-68
2023/07/18 11:50:45;;;;;;;3.58;0.35;;;24.30;97.20;;;;;;5114841;28;20074;-68
2023/07/18 11:53:11;;;;;;;4.43;0.60;;;24.20;95.50;;;;;;5116424;28;20039;-68
2023/07/18 11:55:37;;;;;;;4.38;0.50;;;24.20;96.20;;;;;;5115291;28;20048;-68
2023/07/18 11:58:07;;;;;;;4.97;0.50;;;24.30;96.30;;;;;;5115579;28;20371;-68
2023/07/18 12:00:36;;;;;;;3.28;0.50;;;24.30;96.80;;;;;;5115005;28;20235;-68
2023/07/18 12:03:02;;;;;;;4.78;0.50;;;24.30;96.20;;;;;;5115212;28;20054;-68
2023/07/18 12:05:28;;;;;;;7.30;0.65;;;24.50;96.60;;;;;;5116181;28;20047;-69
2023/07/18 12:07:54;;;;;;;4.18;0.50;;;24.70;94.10;;;;;;5117041;28;20375;-68
2023/07/18 12:10:21;;;;;;;6.07;0.60;;;24.70;95.50;;;;;;5116854;28;20099;-69
2023/07/18 12:12:47;;;;;;;2.95;0.50;;;24.80;96.00;;;;;;5115317;28;20055;-68
2023/07/18 12:15:13;;;;;;;3.15;0.30;;;;;;;;;;5115761;28;20054;-69
2023/07/18 12:17:40;;;;;;;3.35;0.50;;;;;;;;;;5116566;28;20043;-69
2023/07/18 12:20:06;;;;;;;4.53;0.40;;;24.60;95.50;;;;;;5114994;28;20489;-70
2023/07/18 12:22:32;;;;;;;3.05;0.40;;;24.70;96.00;;;;;;5116236;28;20035;-69
2023/07/18 12:24:58;;;;;;;3.35;0.40;;;24.90;95.60;;;;;;5114879;28;20051;-68
2023/07/18 12:27:24;;;;;;;1.70;0.33;;;24.90;95.20;;;;;;5098477;28;20132;-68
2023/07/18 12:29:50;;;;;;;2.57;0.47;;;25.10;95.60;;;;;;5113819;28;20289;-70
2023/07/18 12:32:16;;;;;;;3.53;0.50;;;;;;;;;;5114330;28;20285;-68
2023/07/18 12:34:42;;;;;;;3.35;0.35;;;;;;;;;;5098459;28;20052;-69
2023/07/18 12:37:08;;;;;;;3.67;0.43;;;;;;;;;;5114390;28;20086;-69
2023/07/18 12:39:34;;;;;;;4.45;0.43;;;;;;;;;;5114412;28;20075;-68
2023/07/18 12:42:01;;;;;;;2.72;0.40;;;;;;;;;;5115742;28;20079;-68
2023/07/18 12:44:40;;;;;;;2.33;0.40;;;;;;;;;;5114094;28;20096;-69
2023/07/18 12:47:07;;;;;;;3.10;0.70;;;;;;;;;;5099388;27;20130;-70
2023/07/18 12:49:35;;;;;;;4.55;0.82;;;;;;;;;;5117941;27;20047;-69
2023/07/18 12:52:01;;;;;;;3.25;0.40;;;;;;;;;;5135773;27;20043;-68